createdAt,value
2023-09-12T00:02:15.862Z,99885.52
2023-09-12T00:04:42.893Z,99888.96
2023-09-12T00:07:09.898Z,99882.88
2023-09-12T00:09:36.951Z,99882.63
2023-09-12T00:12:04.436Z,99880.39
2023-09-12T00:14:31.467Z,99880.41
2023-09-12T00:16:58.485Z,99877.00
2023-09-12T00:19:25.576Z,99876.41
2023-09-12T00:21:53.619Z,99873.17
2023-09-12T00:24:20.659Z,99878.09
2023-09-12T00:26:47.756Z,99880.96
2023-09-12T00:29:14.773Z,99882.12
2023-09-12T00:31:41.838Z,99879.52
2023-09-12T00:34:08.902Z,99882.88
2023-09-12T00:36:38.180Z,99885.45
2023-09-12T00:39:05.325Z,99887.27
2023-09-12T00:41:32.280Z,99888.11
2023-09-12T00:43:59.338Z,99885.65
2023-09-12T00:46:27.942Z,99887.15
2023-09-12T00:48:57.741Z,99885.00
2023-09-12T00:51:26.336Z,99885.52
2023-09-12T00:53:54.959Z,99890.34
2023-09-12T00:56:22.094Z,99891.34
2023-09-12T00:58:51.625Z,99890.71
2023-09-12T01:01:20.983Z,99890.31
2023-09-12T01:03:48.031Z,99893.83
2023-09-12T01:06:17.407Z,99889.86
2023-09-12T01:08:44.719Z,99889.94
2023-09-12T01:11:14.131Z,99888.86
2023-09-12T01:13:41.092Z,99885.55
2023-09-12T01:16:08.069Z,99879.54
2023-09-12T01:18:37.184Z,99880.04
2023-09-12T01:21:19.587Z,99879.25
2023-09-12T01:24:28.096Z,99877.48
2023-09-12T01:27:22.132Z,99880.33
2023-09-12T01:29:56.142Z,99881.95
2023-09-12T01:32:23.102Z,99880.14
2023-09-12T01:34:50.134Z,99881.27
2023-09-12T01:37:17.156Z,99882.49
2023-09-12T01:39:44.196Z,99882.73
2023-09-12T01:42:18.719Z,99881.02
2023-09-12T01:44:47.237Z,99885.48
2023-09-12T01:47:16.155Z,99885.38
2023-09-12T01:49:48.296Z,99887.63
2023-09-12T01:52:15.882Z,99886.91
2023-09-12T01:54:45.095Z,99887.80
2023-09-12T01:57:13.326Z,99887.66
2023-09-12T01:59:40.588Z,99886.60
2023-09-12T02:02:07.768Z,99888.75
2023-09-12T02:04:34.753Z,99886.70
2023-09-12T02:07:01.724Z,99888.42
2023-09-12T02:09:28.768Z,99890.27
2023-09-12T02:11:55.707Z,99888.71
2023-09-12T02:14:22.647Z,99887.02
2023-09-12T02:16:49.763Z,99889.58
2023-09-12T02:19:16.931Z,99892.94
2023-09-12T02:21:44.002Z,99893.63
2023-09-12T02:24:11.047Z,99890.68
2023-09-12T02:26:38.041Z,99890.98
2023-09-12T02:29:06.580Z,99890.48
2023-09-12T02:31:33.600Z,99888.91
2023-09-12T02:34:00.862Z,99889.31
2023-09-12T02:36:29.025Z,99891.92
2023-09-12T02:38:56.182Z,99890.46
2023-09-12T02:41:23.291Z,99890.02
2023-09-12T02:43:50.257Z,99887.29
2023-09-12T02:46:17.214Z,99885.27
2023-09-12T02:48:44.339Z,99885.17
2023-09-12T02:51:12.422Z,99888.27
2023-09-12T02:53:39.514Z,99887.58
2023-09-12T02:56:06.555Z,99889.03
2023-09-12T02:58:33.455Z,99886.95
2023-09-12T03:01:01.895Z,99890.13
2023-09-12T03:03:29.148Z,99891.73
2023-09-12T03:06:01.085Z,99890.12
2023-09-12T03:08:28.189Z,99893.85
2023-09-12T03:10:56.545Z,99897.77
2023-09-12T03:13:26.925Z,99895.85
2023-09-12T03:15:54.165Z,99897.50
2023-09-12T03:18:21.252Z,99895.77
2023-09-12T03:20:48.459Z,99892.60
2023-09-12T03:23:15.470Z,99894.14
2023-09-12T03:25:42.440Z,99895.06
2023-09-12T03:28:09.455Z,99896.40
2023-09-12T03:30:38.263Z,99897.63
2023-09-12T03:33:06.447Z,99900.07
2023-09-12T03:35:34.009Z,99900.84
2023-09-12T03:38:01.419Z,99900.94
2023-09-12T03:40:32.088Z,99899.98
2023-09-12T03:42:59.116Z,99901.30
2023-09-12T03:45:26.280Z,99900.19
2023-09-12T03:47:53.364Z,99897.94
2023-09-12T03:50:20.352Z,99900.15
2023-09-12T03:52:47.344Z,99897.80
2023-09-12T03:55:14.446Z,99898.19
2023-09-12T03:57:41.661Z,99897.58
2023-09-12T04:00:09.377Z,99892.74
2023-09-12T04:02:36.376Z,99892.80
2023-09-12T04:05:03.635Z,99892.44
2023-09-12T04:07:30.689Z,99892.63
2023-09-12T04:09:57.679Z,99890.77
2023-09-12T04:12:24.625Z,99890.09
2023-09-12T04:14:52.852Z,99890.14
2023-09-12T04:17:19.793Z,99891.26
2023-09-12T04:19:46.816Z,99895.11
2023-09-12T04:22:13.969Z,99894.91
2023-09-12T04:24:41.006Z,99894.90
2023-09-12T04:27:08.344Z,99893.21
2023-09-12T04:29:35.598Z,99895.95
2023-09-12T04:32:04.404Z,99897.27
2023-09-12T04:34:31.837Z,99896.44
2023-09-12T04:36:58.986Z,99896.52
2023-09-12T04:39:26.031Z,99896.76
2023-09-12T04:41:53.028Z,99897.75
2023-09-12T04:44:20.009Z,99892.67
2023-09-12T04:46:47.011Z,99894.63
2023-09-12T04:49:13.989Z,99896.47
2023-09-12T04:51:40.986Z,99894.32
2023-09-12T04:54:07.980Z,99897.05
2023-09-12T04:56:34.978Z,99893.81
2023-09-12T04:59:02.207Z,99894.89
2023-09-12T05:01:29.218Z,99899.98
2023-09-12T05:03:56.263Z,99902.52
2023-09-12T05:06:23.457Z,99907.26
2023-09-12T05:08:50.470Z,99909.38
2023-09-12T05:11:17.761Z,99910.39
2023-09-12T05:13:44.694Z,99912.17
2023-09-12T05:16:11.700Z,99914.48
2023-09-12T05:18:38.745Z,99916.03
2023-09-12T05:21:05.873Z,99918.70
2023-09-12T05:23:33.103Z,99920.80
2023-09-12T05:26:00.282Z,99926.14
2023-09-12T05:28:27.270Z,99924.27
2023-09-12T05:30:54.409Z,99923.89
2023-09-12T05:33:21.538Z,99923.77
2023-09-12T05:35:48.655Z,99924.62
2023-09-12T05:38:15.628Z,99927.80
2023-09-12T05:40:42.666Z,99925.85
2023-09-12T05:43:09.640Z,99920.51
2023-09-12T05:45:36.699Z,99922.39
2023-09-12T05:48:05.055Z,99926.34
2023-09-12T05:50:32.086Z,99925.65
2023-09-12T05:52:59.125Z,99920.00
2023-09-12T05:55:26.113Z,99920.61
2023-09-12T05:57:53.231Z,99919.31
2023-09-12T06:00:21.288Z,99917.14
2023-09-12T06:02:48.758Z,99912.05
2023-09-12T06:05:16.742Z,99912.38
2023-09-12T06:07:44.005Z,99910.53
2023-09-12T06:10:11.096Z,99914.98
2023-09-12T06:12:38.245Z,99914.95
2023-09-12T06:15:06.353Z,99917.41
2023-09-12T06:17:33.319Z,99918.23
2023-09-12T06:20:00.663Z,99916.80
2023-09-12T06:22:27.683Z,99917.42
2023-09-12T06:24:54.684Z,99915.65
2023-09-12T06:27:21.866Z,99914.90
2023-09-12T06:29:50.057Z,99914.21
2023-09-12T06:32:18.560Z,99914.89
2023-09-12T06:34:45.541Z,99912.92
2023-09-12T06:37:12.542Z,99913.38
2023-09-12T06:39:39.501Z,99912.57
2023-09-12T06:42:07.166Z,99910.96
2023-09-12T06:44:34.121Z,99908.15
2023-09-12T06:47:01.126Z,99908.14
2023-09-12T06:49:29.776Z,99910.05
2023-09-12T06:51:57.020Z,99911.40
2023-09-12T06:54:23.967Z,99917.16
2023-09-12T06:56:50.909Z,99919.52
2023-09-12T06:59:17.913Z,99920.54
2023-09-12T07:01:45.436Z,99915.38
2023-09-12T07:04:12.417Z,99911.69
2023-09-12T07:06:39.501Z,99910.52
2023-09-12T07:09:07.013Z,99912.33
2023-09-12T07:11:34.022Z,99911.70
2023-09-12T07:14:01.044Z,99913.60
2023-09-12T07:16:28.080Z,99916.85
2023-09-12T07:18:55.097Z,99914.64
2023-09-12T07:21:22.059Z,99912.27
2023-09-12T07:23:49.213Z,99914.77
2023-09-12T07:26:16.272Z,99915.23
2023-09-12T07:28:43.470Z,99918.25
2023-09-12T07:31:10.663Z,99919.39
2023-09-12T07:33:37.802Z,99921.12
2023-09-12T07:36:05.038Z,99920.80
2023-09-12T07:38:32.152Z,99919.73
2023-09-12T07:41:00.502Z,99919.16
2023-09-12T07:43:27.439Z,99918.11
2023-09-12T07:45:58.908Z,99920.79
2023-09-12T07:48:26.232Z,99913.89
2023-09-12T07:50:53.439Z,99913.41
2023-09-12T07:53:20.479Z,99913.46
2023-09-12T07:55:47.726Z,99915.35
2023-09-12T07:58:19.132Z,99916.67
2023-09-12T08:00:47.298Z,99914.76
2023-09-12T08:03:15.570Z,99912.30
2023-09-12T08:05:42.685Z,99912.98
2023-09-12T08:08:11.032Z,99913.46
2023-09-12T08:10:38.292Z,99916.67
2023-09-12T08:13:05.380Z,99910.83
2023-09-12T08:15:32.410Z,99913.08
2023-09-12T08:17:59.455Z,99910.89
2023-09-12T08:20:26.406Z,99912.08
2023-09-12T08:22:53.369Z,99909.91
2023-09-12T08:25:20.444Z,99911.12
2023-09-12T08:27:47.456Z,99910.42
2023-09-12T08:30:14.530Z,99906.35
2023-09-12T08:32:44.172Z,99909.19
2023-09-12T08:35:12.994Z,99908.99
2023-09-12T08:37:41.759Z,99907.58
2023-09-12T08:40:10.666Z,99909.36
2023-09-12T08:42:43.827Z,99914.12
2023-09-12T08:45:17.670Z,99912.99
2023-09-12T08:47:50.464Z,99913.52
2023-09-12T08:50:18.140Z,99916.92
2023-09-12T08:53:03.752Z,99912.31
2023-09-12T08:55:35.592Z,99910.36
2023-09-12T08:58:04.411Z,99915.90
2023-09-12T09:00:31.867Z,99921.88
2023-09-12T09:02:59.676Z,99924.60
2023-09-12T09:05:28.325Z,99924.91
2023-09-12T09:07:57.227Z,99926.70
2023-09-12T09:10:34.512Z,99927.81
2023-09-12T09:13:10.182Z,99929.15
2023-09-12T09:15:41.744Z,99933.59
2023-09-12T09:18:10.168Z,99937.27
2023-09-12T09:20:37.725Z,99934.84
2023-09-12T09:23:10.823Z,99935.69
2023-09-12T09:25:51.624Z,99934.73
2023-09-12T09:28:21.068Z,99933.50
2023-09-12T09:30:55.153Z,99930.05
2023-09-12T09:33:22.903Z,99927.82
2023-09-12T09:35:51.976Z,99927.52
2023-09-12T09:38:23.353Z,99924.70
2023-09-12T09:40:51.095Z,99921.36
2023-09-12T09:43:22.031Z,99917.89
2023-09-12T09:45:49.328Z,99915.61
2023-09-12T09:48:21.628Z,99914.89
2023-09-12T09:50:49.645Z,99913.29
2023-09-12T09:53:16.859Z,99913.48
2023-09-12T09:55:43.920Z,99914.71
2023-09-12T09:58:19.274Z,99913.74
2023-09-12T10:00:48.851Z,99915.06
2023-09-12T10:03:19.436Z,99917.51
2023-09-12T10:05:50.321Z,99914.53
2023-09-12T10:08:19.439Z,99913.50
2023-09-12T10:10:48.122Z,99912.14
2023-09-12T10:13:16.608Z,99907.81
2023-09-12T10:15:45.202Z,99912.11
2023-09-12T10:21:07.526Z,99908.38
2023-09-12T10:23:42.468Z,99904.23
2023-09-12T10:26:14.346Z,99909.08
2023-09-12T10:28:43.415Z,99906.34
2023-09-12T10:31:13.349Z,99903.71
2023-09-12T10:33:40.723Z,99903.13
2023-09-12T10:36:09.717Z,99906.45
2023-09-12T10:38:43.826Z,99906.95
2023-09-12T10:41:14.422Z,99903.87
2023-09-12T10:43:47.248Z,99900.80
2023-09-12T10:46:14.268Z,99897.86
2023-09-12T10:48:41.945Z,99895.19
2023-09-12T10:51:12.937Z,99900.66
2023-09-12T10:53:48.927Z,99898.99
2023-09-12T10:56:20.596Z,99900.38
2023-09-12T10:59:04.433Z,99897.41
2023-09-12T11:01:32.577Z,99896.50
2023-09-12T11:04:19.990Z,99891.56
2023-09-12T11:06:50.533Z,99887.09
2023-09-12T11:09:25.056Z,99886.64
2023-09-12T11:12:03.553Z,99890.40
2023-09-12T11:14:31.385Z,99885.92
2023-09-12T11:17:08.247Z,99886.71
2023-09-12T11:19:52.463Z,99882.83
2023-09-12T11:22:31.488Z,99881.10
2023-09-12T11:25:06.229Z,99882.23
2023-09-12T11:27:46.665Z,99877.36
2023-09-12T11:30:14.529Z,99874.58
2023-09-12T11:32:45.887Z,99872.13
2023-09-12T11:35:14.936Z,99876.05
2023-09-12T11:37:57.961Z,99880.11
2023-09-12T11:40:34.892Z,99882.72
2023-09-12T11:43:02.272Z,99875.84
2023-09-12T11:45:29.944Z,99873.34
2023-09-12T11:47:57.023Z,99870.83
2023-09-12T11:50:37.472Z,99872.21
2023-09-12T11:53:10.704Z,99870.42
2023-09-12T11:55:45.906Z,99872.70
2023-09-12T11:58:17.925Z,99872.73
2023-09-12T12:00:53.128Z,99867.17
2023-09-12T12:03:23.791Z,99865.91
2023-09-12T12:05:51.849Z,99862.41
2023-09-12T12:10:54.541Z,99864.11
2023-09-12T12:13:22.887Z,99865.45
2023-09-12T12:15:50.065Z,99862.87
2023-09-12T12:18:17.403Z,99860.69
2023-09-12T12:20:44.565Z,99861.31
2023-09-12T12:23:11.757Z,99863.19
2023-09-12T12:25:38.736Z,99863.33
2023-09-12T12:28:06.058Z,99864.10
2023-09-12T12:30:35.645Z,99867.48
2023-09-12T12:33:22.529Z,99866.52
2023-09-12T12:36:04.608Z,99864.20
2023-09-12T12:39:51.486Z,99866.58
2023-09-12T12:41:51.181Z,99862.80
2023-09-12T12:44:19.592Z,99865.05
2023-09-12T12:46:52.487Z,99863.02
2023-09-12T12:49:21.157Z,99861.80
2023-09-12T12:51:49.537Z,99858.54
2023-09-12T12:54:16.890Z,99859.72
2023-09-12T12:56:47.558Z,99856.73
2023-09-12T12:59:15.601Z,99851.70
2023-09-12T13:01:44.854Z,99853.26
2023-09-12T13:04:12.048Z,99849.62
2023-09-12T13:06:40.201Z,99849.25
2023-09-12T13:09:08.827Z,99846.27
2023-09-12T13:11:36.320Z,99845.50
2023-09-12T13:14:11.430Z,99842.65
2023-09-12T13:16:41.017Z,99845.71
2023-09-12T13:19:08.086Z,99845.10
2023-09-12T13:21:35.690Z,99844.44
2023-09-12T13:24:03.260Z,99841.52
2023-09-12T13:26:31.417Z,99837.71
2023-09-12T13:28:58.514Z,99835.23
2023-09-12T13:31:25.733Z,99827.70
2023-09-12T13:33:52.830Z,99827.00
2023-09-12T13:36:20.277Z,99829.40
2023-09-12T13:38:48.910Z,99830.33
2023-09-12T13:41:15.951Z,99833.73
2023-09-12T13:43:45.937Z,99829.47
2023-09-12T13:46:13.676Z,99830.55
2023-09-12T13:48:40.857Z,99827.33
2023-09-12T13:51:08.228Z,99823.98
2023-09-12T13:53:35.517Z,99821.73
2023-09-12T13:56:02.734Z,99822.75
2023-09-12T13:58:38.858Z,99821.91
2023-09-12T14:01:12.532Z,99821.02
2023-09-12T14:03:42.566Z,99819.39
2023-09-12T14:06:10.051Z,99820.85
2023-09-12T14:08:37.270Z,99821.21
2023-09-12T14:11:05.242Z,99818.36
2023-09-12T14:13:34.256Z,99814.93
2023-09-12T14:16:01.773Z,99818.19
2023-09-12T14:18:30.770Z,99820.20
2023-09-12T14:20:59.108Z,99820.33
2023-09-12T14:23:26.554Z,99819.65
2023-09-12T14:25:54.367Z,99822.02
2023-09-12T14:28:28.849Z,99827.14
2023-09-12T14:30:56.077Z,99825.52
2023-09-12T14:33:25.648Z,99822.27
2023-09-12T14:35:52.816Z,99823.86
2023-09-12T14:38:32.334Z,99824.13
2023-09-12T14:40:59.739Z,99823.84
2023-09-12T14:43:28.633Z,99822.73
2023-09-12T14:45:56.209Z,99822.96
2023-09-12T14:48:23.651Z,99822.89
2023-09-12T14:50:50.680Z,99823.70
2023-09-12T14:53:17.893Z,99826.02
2023-09-12T14:55:45.113Z,99817.64
2023-09-12T14:58:12.313Z,99816.36
2023-09-12T15:01:01.957Z,99821.65
2023-09-12T15:03:31.296Z,99820.17
2023-09-12T15:05:58.328Z,99821.98
2023-09-12T15:08:25.738Z,99823.48
2023-09-12T15:10:55.803Z,99824.06
2023-09-12T15:13:22.816Z,99825.63
2023-09-12T15:15:50.171Z,99824.98
2023-09-12T15:18:17.317Z,99823.64
2023-09-12T15:20:44.323Z,99821.35
2023-09-12T15:23:11.422Z,99815.98
2023-09-12T15:25:38.705Z,99815.84
2023-09-12T15:28:06.150Z,99811.43
2023-09-12T15:30:33.444Z,99817.23
2023-09-12T15:33:00.584Z,99814.34
2023-09-12T15:35:27.815Z,99811.16
2023-09-12T15:37:54.967Z,99810.58
2023-09-12T15:40:21.984Z,99807.89
2023-09-12T15:42:54.264Z,99808.47
2023-09-12T15:45:21.648Z,99807.86
2023-09-12T15:47:49.774Z,99804.60
2023-09-12T15:50:19.088Z,99804.54
2023-09-12T15:52:56.706Z,99807.80
2023-09-12T15:55:27.269Z,99805.07
2023-09-12T15:57:59.786Z,99804.48
2023-09-12T16:00:27.097Z,99807.02
2023-09-12T16:02:54.481Z,99807.63
2023-09-12T16:05:21.839Z,99806.20
2023-09-12T16:07:49.012Z,99805.74
2023-09-12T16:10:16.145Z,99802.99
2023-09-12T16:12:43.321Z,99801.74
2023-09-12T16:15:10.581Z,99800.39
2023-09-12T16:17:42.709Z,99798.78
2023-09-12T16:20:13.596Z,99800.46
2023-09-12T16:22:41.842Z,99798.27
2023-09-12T16:25:09.633Z,99797.38
2023-09-12T16:27:37.037Z,99796.74
2023-09-12T16:30:08.230Z,99795.95
2023-09-12T16:32:38.732Z,99798.67
2023-09-12T16:35:07.245Z,99797.09
2023-09-12T16:37:34.792Z,99795.59
2023-09-12T16:40:02.519Z,99794.90
2023-09-12T16:42:39.206Z,99794.84
2023-09-12T16:45:08.892Z,99794.79
2023-09-12T16:47:36.023Z,99794.67
2023-09-12T16:50:03.517Z,99788.47
2023-09-12T16:52:31.155Z,99787.64
2023-09-12T16:54:58.211Z,99792.00
2023-09-12T16:57:25.342Z,99788.34
2023-09-12T16:59:52.383Z,99781.91
2023-09-12T17:02:19.506Z,99784.69
2023-09-12T17:04:46.606Z,99785.77
2023-09-12T17:07:13.868Z,99783.73
2023-09-12T17:09:41.447Z,99783.92
2023-09-12T17:12:09.121Z,99784.95
2023-09-12T17:14:36.223Z,99783.33
2023-09-12T17:17:03.704Z,99786.79
2023-09-12T17:19:31.046Z,99786.96
2023-09-12T17:21:58.094Z,99786.39
2023-09-12T17:24:25.318Z,99788.36
2023-09-12T17:26:54.464Z,99789.55
2023-09-12T17:29:25.817Z,99796.34
2023-09-12T17:31:53.293Z,99792.11
2023-09-12T17:34:38.498Z,99789.29
2023-09-12T17:37:05.666Z,99793.98
2023-09-12T17:39:32.658Z,99794.64
2023-09-12T17:41:59.885Z,99794.69
2023-09-12T17:44:26.979Z,99791.63
2023-09-12T17:46:54.006Z,99793.09
2023-09-12T17:49:21.203Z,99790.45
2023-09-12T17:51:48.495Z,99790.73
2023-09-12T17:54:15.665Z,99792.96
2023-09-12T17:56:42.685Z,99796.96
2023-09-12T17:59:09.772Z,99795.99
2023-09-12T18:01:37.079Z,99798.31
2023-09-12T18:04:04.528Z,99799.94
2023-09-12T18:06:32.131Z,99803.89
2023-09-12T18:09:03.304Z,99806.62
2023-09-12T18:11:30.741Z,99806.60
2023-09-12T18:14:12.569Z,99808.66
2023-09-12T18:16:39.636Z,99809.17
2023-09-12T18:19:06.744Z,99810.09
2023-09-12T18:21:33.843Z,99815.98
2023-09-12T18:24:00.887Z,99822.80
2023-09-12T18:26:28.197Z,99819.27
2023-09-12T18:28:56.933Z,99819.30
2023-09-12T18:31:23.925Z,99822.58
2023-09-12T18:33:51.227Z,99824.15
2023-09-12T18:36:18.724Z,99824.21
2023-09-12T18:38:45.742Z,99825.46
2023-09-12T18:41:14.143Z,99829.75
2023-09-12T18:43:41.470Z,99824.47
2023-09-12T18:46:09.253Z,99822.20
2023-09-12T18:51:10.935Z,99826.95
2023-09-12T18:53:42.526Z,99827.52
2023-09-12T18:56:11.017Z,99824.52
2023-09-12T18:58:40.574Z,99830.02
2023-09-12T19:01:09.885Z,99832.29
2023-09-12T19:03:42.110Z,99832.00
2023-09-12T19:06:10.980Z,99829.30
2023-09-12T19:08:41.920Z,99829.82
2023-09-12T19:11:10.761Z,99829.95
2023-09-12T19:13:39.295Z,99829.86
2023-09-12T19:16:07.816Z,99827.94
2023-09-12T19:18:36.189Z,99828.05
2023-09-12T19:21:06.124Z,99828.45
2023-09-12T19:23:34.486Z,99826.42
2023-09-12T19:26:03.384Z,99821.04
2023-09-12T19:28:33.957Z,99821.57
2023-09-12T19:31:03.039Z,99826.19
2023-09-12T19:33:31.816Z,99825.83
2023-09-12T19:36:00.891Z,99826.13
2023-09-12T19:38:30.193Z,99825.14
2023-09-12T19:41:10.773Z,99828.39
2023-09-12T19:43:39.788Z,99830.40
2023-09-12T19:46:09.315Z,99827.80
2023-09-12T19:48:38.006Z,99828.06
2023-09-12T19:51:06.466Z,99826.58
2023-09-12T19:53:34.793Z,99826.83
2023-09-12T19:56:04.040Z,99830.13
2023-09-12T19:58:34.360Z,99829.36
2023-09-12T20:01:07.146Z,99829.23
2023-09-12T20:03:35.713Z,99829.73
2023-09-12T20:06:04.304Z,99831.45
2023-09-12T20:08:32.731Z,99832.34
2023-09-12T20:11:01.877Z,99832.80
2023-09-12T20:13:30.394Z,99831.74
2023-09-12T20:15:59.063Z,99830.95
2023-09-12T20:18:27.586Z,99834.69
2023-09-12T20:20:57.414Z,99833.41
2023-09-12T20:23:26.718Z,99831.23
2023-09-12T20:25:55.236Z,99831.13
2023-09-12T20:28:25.284Z,99831.20
2023-09-12T20:30:53.810Z,99830.42
2023-09-12T20:33:28.971Z,99831.92
2023-09-12T20:36:00.819Z,99832.13
2023-09-12T20:38:29.230Z,99831.04
2023-09-12T20:40:57.910Z,99830.34
2023-09-12T20:48:09.149Z,99826.80
2023-09-12T20:50:56.130Z,99827.08
2023-09-12T20:53:25.966Z,99826.25
2023-09-12T20:56:26.495Z,99826.69
2023-09-12T20:59:06.828Z,99826.76
2023-09-12T21:02:16.395Z,99832.61
2023-09-12T21:05:17.596Z,99836.51
2023-09-12T21:07:46.560Z,99833.34
2023-09-12T21:10:14.034Z,99831.16
2023-09-12T21:12:41.186Z,99836.85
2023-09-12T21:15:09.835Z,99840.40
2023-09-12T21:17:37.883Z,99835.36
2023-09-12T21:20:06.517Z,99833.73
2023-09-12T21:22:34.249Z,99831.99
2023-09-12T21:25:01.836Z,99832.64
2023-09-12T21:27:29.280Z,99833.15
2023-09-12T21:29:56.328Z,99834.17
2023-09-12T21:32:33.019Z,99830.67
2023-09-12T21:35:20.614Z,99836.30
2023-09-12T21:38:19.930Z,99832.93
2023-09-12T21:40:47.176Z,99827.45
2023-09-12T21:43:15.604Z,99825.20
2023-09-12T21:45:42.702Z,99823.91
2023-09-12T21:48:10.037Z,99820.45
2023-09-12T21:50:37.565Z,99819.00
2023-09-12T21:53:05.297Z,99817.09
2023-09-12T21:55:34.809Z,99816.23
2023-09-12T21:58:05.525Z,99815.43
2023-09-12T22:00:34.767Z,99818.36
2023-09-12T22:03:03.340Z,99814.13
2023-09-12T22:05:30.672Z,99813.66
2023-09-12T22:07:57.598Z,99811.73
2023-09-12T22:10:24.631Z,99807.48
2023-09-12T22:12:51.660Z,99810.77
2023-09-12T22:15:19.102Z,99815.50
2023-09-12T22:17:47.272Z,99815.58
2023-09-12T22:20:16.596Z,99820.83
2023-09-12T22:22:45.728Z,99818.98
2023-09-12T22:25:13.172Z,99816.30
2023-09-12T22:27:43.437Z,99817.58
2023-09-12T22:30:11.124Z,99820.26
2023-09-12T22:32:39.272Z,99819.40
2023-09-12T22:35:06.937Z,99819.67
2023-09-12T22:37:33.992Z,99821.42
2023-09-12T22:40:01.390Z,99823.77
2023-09-12T22:42:28.518Z,99824.13
2023-09-12T22:44:55.707Z,99826.27
2023-09-12T22:47:22.906Z,99821.02
2023-09-12T22:49:51.720Z,99821.85
2023-09-12T22:52:18.972Z,99816.52
2023-09-12T22:54:46.118Z,99816.31
2023-09-12T22:57:13.197Z,99812.27
2023-09-12T22:59:40.178Z,99811.59
2023-09-12T23:02:07.182Z,99809.46
2023-09-12T23:04:34.259Z,99810.10
2023-09-12T23:07:02.758Z,99806.83
2023-09-12T23:12:45.522Z,99807.52
2023-09-12T23:15:12.597Z,99807.06
2023-09-12T23:17:39.644Z,99810.27
2023-09-12T23:20:12.167Z,99814.33
2023-09-12T23:22:42.418Z,99815.45
2023-09-12T23:25:12.576Z,99814.11
2023-09-12T23:29:19.817Z,99811.11
2023-09-12T23:31:48.838Z,99809.41
2023-09-12T23:34:17.774Z,99807.05
2023-09-12T23:36:46.387Z,99798.84
2023-09-12T23:39:16.168Z,99804.67
2023-09-12T23:41:45.206Z,99803.12
2023-09-12T23:44:13.566Z,99803.98
2023-09-12T23:46:41.919Z,99803.14
2023-09-12T23:49:10.390Z,99802.89
2023-09-12T23:51:39.142Z,99805.69
2023-09-12T23:54:09.088Z,99802.88
2023-09-12T23:56:38.280Z,99802.74
2023-09-12T23:59:07.536Z,99800.23
